createdAt,value
2023-01-19T00:01:14.024Z,5.25
2023-01-19T00:04:18.791Z,5.28
2023-01-19T00:07:23.373Z,5.21
2023-01-19T00:10:29.401Z,5.26
2023-01-19T00:13:33.588Z,5.21
2023-01-19T00:16:37.898Z,5.29
2023-01-19T00:19:42.969Z,5.31
2023-01-19T00:22:51.329Z,5.35
2023-01-19T00:25:54.700Z,5.38
2023-01-19T00:28:58.992Z,5.32
2023-01-19T00:32:05.516Z,5.27
2023-01-19T00:35:10.758Z,5.25
2023-01-19T00:38:17.100Z,5.36
2023-01-19T00:41:42.916Z,5.33
2023-01-19T00:44:49.838Z,5.35
2023-01-19T00:47:59.071Z,5.38
2023-01-19T00:51:07.482Z,5.38
2023-01-19T00:54:19.349Z,5.47
2023-01-19T00:57:25.496Z,5.43
2023-01-19T01:00:33.847Z,5.44
2023-01-19T01:03:39.391Z,5.46
2023-01-19T01:06:44.229Z,5.50
2023-01-19T01:09:48.632Z,5.45
2023-01-19T01:12:57.038Z,5.41
2023-01-19T01:16:02.677Z,5.47
2023-01-19T01:19:07.829Z,5.40
2023-01-19T01:22:11.837Z,5.38
2023-01-19T01:25:17.378Z,5.46
2023-01-19T01:28:20.957Z,5.39
2023-01-19T01:31:28.294Z,5.41
2023-01-19T01:34:34.945Z,5.37
2023-01-19T01:37:44.513Z,5.41
2023-01-19T01:40:50.780Z,5.37
2023-01-19T01:44:04.338Z,5.30
2023-01-19T01:47:10.683Z,5.21
2023-01-19T01:50:27.314Z,5.20
2023-01-19T01:53:38.409Z,5.12
2023-01-19T01:56:51.064Z,5.03
2023-01-19T02:00:01.443Z,4.95
2023-01-19T02:03:12.284Z,5.03
2023-01-19T02:06:22.540Z,4.91
2023-01-19T02:09:53.698Z,4.93
2023-01-19T02:13:19.130Z,4.89
2023-01-19T02:16:24.648Z,4.88
2023-01-19T02:19:36.943Z,4.90
2023-01-19T02:22:49.511Z,4.88
2023-01-19T02:25:53.698Z,4.91
2023-01-19T02:29:06.808Z,4.93
2023-01-19T02:32:14.132Z,4.94
2023-01-19T02:35:24.461Z,4.98
2023-01-19T02:38:29.578Z,5.02
2023-01-19T02:41:43.438Z,4.98
2023-01-19T02:44:54.350Z,4.87
2023-01-19T02:48:02.439Z,4.85
2023-01-19T02:51:24.839Z,4.75
2023-01-19T02:54:36.559Z,4.78
2023-01-19T02:57:57.518Z,4.65
2023-01-19T03:01:24.225Z,4.55
2023-01-19T03:05:12.706Z,4.46
2023-01-19T03:08:57.177Z,4.43
2023-01-19T03:12:16.168Z,4.51
2023-01-19T03:15:23.514Z,4.41
2023-01-19T03:18:36.014Z,4.36
2023-01-19T03:21:49.029Z,4.41
2023-01-19T03:25:01.115Z,4.37
2023-01-19T03:28:10.378Z,4.28
2023-01-19T03:31:26.737Z,4.23
2023-01-19T03:34:33.737Z,4.25
2023-01-19T03:37:46.166Z,4.21
2023-01-19T03:41:02.875Z,4.25
2023-01-19T03:44:14.301Z,4.25
2023-01-19T03:47:23.748Z,4.26
2023-01-19T03:50:31.119Z,4.24
2023-01-19T03:53:39.409Z,4.25
2023-01-19T03:56:48.415Z,4.23
2023-01-19T04:00:02.140Z,4.19
2023-01-19T04:03:20.715Z,4.19
2023-01-19T04:06:29.043Z,4.21
2023-01-19T04:09:38.487Z,4.22
2023-01-19T04:12:46.291Z,4.21
2023-01-19T04:15:53.179Z,4.18
2023-01-19T04:19:03.155Z,4.17
2023-01-19T04:22:09.751Z,4.15
2023-01-19T04:25:16.163Z,4.21
2023-01-19T04:28:22.440Z,4.26
2023-01-19T04:31:30.071Z,4.23
2023-01-19T04:34:35.786Z,4.10
2023-01-19T04:37:40.833Z,4.10
2023-01-19T04:40:45.879Z,3.91
2023-01-19T04:43:54.865Z,3.87
2023-01-19T04:47:04.454Z,3.78
2023-01-19T04:50:14.533Z,3.58
2023-01-19T04:53:20.522Z,3.38
2023-01-19T04:56:27.507Z,3.36
2023-01-19T04:59:36.978Z,3.19
2023-01-19T05:02:47.937Z,3.08
2023-01-19T05:05:55.156Z,3.02
2023-01-19T05:09:02.769Z,2.95
2023-01-19T05:12:07.705Z,2.90
2023-01-19T05:15:13.529Z,2.91
2023-01-19T05:18:22.588Z,2.82
2023-01-19T05:21:34.818Z,2.84
2023-01-19T05:24:42.257Z,2.82
2023-01-19T05:27:51.321Z,2.77
2023-01-19T05:30:58.447Z,2.76
2023-01-19T05:34:06.077Z,2.86
2023-01-19T05:37:11.658Z,2.86
2023-01-19T05:40:16.973Z,2.77
2023-01-19T05:43:24.881Z,2.71
2023-01-19T05:46:31.947Z,2.67
2023-01-19T05:49:39.282Z,2.68
2023-01-19T05:52:44.971Z,2.66
2023-01-19T05:55:50.799Z,2.67
2023-01-19T05:58:57.577Z,2.65
2023-01-19T06:02:03.180Z,2.69
2023-01-19T06:05:09.393Z,2.66
2023-01-19T06:08:15.041Z,2.65
2023-01-19T06:11:19.832Z,2.71
2023-01-19T06:14:23.407Z,2.72
2023-01-19T06:17:26.692Z,2.77
2023-01-19T06:20:30.070Z,2.78
2023-01-19T06:23:35.664Z,2.75
2023-01-19T06:26:39.778Z,2.78
2023-01-19T06:29:44.993Z,2.79
2023-01-19T06:32:48.032Z,2.94
2023-01-19T06:35:52.212Z,3.00
2023-01-19T06:38:56.411Z,3.03
2023-01-19T06:41:59.510Z,2.97
2023-01-19T06:45:02.616Z,2.93
2023-01-19T06:48:06.655Z,2.94
2023-01-19T06:51:11.736Z,3.11
2023-01-19T06:54:20.812Z,3.15
2023-01-19T06:57:23.865Z,3.22
2023-01-19T07:00:31.444Z,3.27
2023-01-19T07:04:02.094Z,3.25
2023-01-19T07:07:07.187Z,3.18
2023-01-19T07:10:16.043Z,3.08
2023-01-19T07:13:19.304Z,3.15
2023-01-19T07:16:48.061Z,3.06
2023-01-19T07:20:19.978Z,3.17
2023-01-19T07:23:24.361Z,3.21
2023-01-19T07:26:57.251Z,3.05
2023-01-19T07:30:02.624Z,2.96
2023-01-19T07:50:21.575Z,2.87
2023-01-19T07:53:24.668Z,2.96
2023-01-19T07:56:33.940Z,2.88
2023-01-19T07:59:46.847Z,2.96
2023-01-19T08:03:22.234Z,3.01
2023-01-19T08:06:57.147Z,3.08
2023-01-19T08:10:55.791Z,3.10
2023-01-19T08:14:00.351Z,3.11
2023-01-19T08:17:05.308Z,3.08
2023-01-19T08:20:35.803Z,3.06
2023-01-19T08:23:41.173Z,3.11
2023-01-19T08:32:25.084Z,3.02
2023-01-19T08:35:55.614Z,3.07
2023-01-19T08:39:27.295Z,2.96
2023-01-19T08:42:35.390Z,3.02
2023-01-19T08:46:32.204Z,2.94
2023-01-19T08:49:41.376Z,2.99
2023-01-19T08:58:35.467Z,2.95
2023-01-19T09:02:03.531Z,2.96
2023-01-19T09:11:27.686Z,2.93
2023-01-19T09:38:14.546Z,3.01
2023-01-19T09:41:23.248Z,2.93
2023-01-19T09:44:35.911Z,3.05
2023-01-19T09:47:39.896Z,3.03
2023-01-19T09:50:48.745Z,3.06
2023-01-19T09:53:52.165Z,3.03
2023-01-19T09:56:56.055Z,3.12
2023-01-19T09:59:59.991Z,3.18
2023-01-19T10:03:26.835Z,3.14
2023-01-19T10:06:37.573Z,3.08
2023-01-19T10:10:18.011Z,3.08
2023-01-19T10:13:49.165Z,3.04
2023-01-19T10:17:34.709Z,3.13
2023-01-19T10:20:48.381Z,3.14
2023-01-19T10:23:58.982Z,3.22
2023-01-19T10:27:10.678Z,3.11
2023-01-19T10:30:24.413Z,3.35
2023-01-19T10:33:28.724Z,3.33
2023-01-19T10:36:37.992Z,3.40
2023-01-19T10:39:42.312Z,3.32
2023-01-19T10:42:46.017Z,3.29
2023-01-19T10:45:50.944Z,3.39
2023-01-19T10:48:56.603Z,3.32
2023-01-19T10:52:03.770Z,3.30
2023-01-19T10:55:22.970Z,3.31
2023-01-19T10:58:31.464Z,3.39
2023-01-19T11:01:38.326Z,3.38
2023-01-19T11:04:42.791Z,3.44
2023-01-19T11:07:47.097Z,3.47
2023-01-19T11:11:03.756Z,3.47
2023-01-19T11:14:19.824Z,3.35
2023-01-19T11:17:25.991Z,3.38
2023-01-19T11:20:36.088Z,3.42
2023-01-19T11:23:51.099Z,3.30
2023-01-19T11:27:03.774Z,3.32
2023-01-19T11:30:10.731Z,3.25
2023-01-19T11:33:24.824Z,3.42
2023-01-19T11:36:37.075Z,3.48
2023-01-19T11:39:52.468Z,3.26
2023-01-19T11:42:57.114Z,3.33
2023-01-19T11:46:03.918Z,3.20
2023-01-19T11:49:39.588Z,3.14
2023-01-19T11:53:01.463Z,3.08
2023-01-19T11:56:13.555Z,2.89
2023-01-19T11:59:16.716Z,2.90
2023-01-19T12:02:30.506Z,2.74
2023-01-19T12:06:49.195Z,2.73
2023-01-19T12:10:43.718Z,2.66
2023-01-19T12:19:14.800Z,2.50
2023-01-19T12:22:18.584Z,2.44
2023-01-19T12:25:43.899Z,2.37
2023-01-19T12:29:37.007Z,2.58
2023-01-19T12:32:43.077Z,2.58
2023-01-19T12:36:02.334Z,2.86
2023-01-19T12:39:19.343Z,2.68
2023-01-19T12:42:26.845Z,2.60
2023-01-19T12:46:46.340Z,2.62
2023-01-19T12:49:54.061Z,2.50
2023-01-19T12:53:03.634Z,2.57
2023-01-19T13:02:13.281Z,2.44
2023-01-19T13:05:42.462Z,2.51
2023-01-19T13:09:43.563Z,2.53
2023-01-19T13:13:33.415Z,2.50
2023-01-19T13:17:02.592Z,2.28
2023-01-19T13:20:58.196Z,2.37
2023-01-19T13:24:06.566Z,2.27
2023-01-19T13:28:01.563Z,2.33
2023-01-19T13:31:10.324Z,2.34
2023-01-19T13:34:41.287Z,2.42
2023-01-19T13:37:48.711Z,2.45
2023-01-19T13:40:53.513Z,2.54
2023-01-19T13:44:03.468Z,2.68
2023-01-19T13:47:13.371Z,2.88
2023-01-19T13:50:29.808Z,3.06
2023-01-19T13:53:36.739Z,3.03
2023-01-19T13:56:42.087Z,3.14
2023-01-19T13:59:45.871Z,3.11
2023-01-19T14:03:21.551Z,3.15
2023-01-19T14:06:41.093Z,3.07
2023-01-19T14:09:43.827Z,2.84
2023-01-19T14:12:58.971Z,2.75
2023-01-19T14:16:08.097Z,2.94
2023-01-19T14:19:11.968Z,2.76
2023-01-19T14:23:33.876Z,2.74
2023-01-19T14:27:29.090Z,2.75
2023-01-19T14:30:36.031Z,2.67
2023-01-19T14:33:46.155Z,2.79
2023-01-19T14:36:51.769Z,2.73
2023-01-19T14:39:57.378Z,2.74
2023-01-19T14:43:05.749Z,2.74
2023-01-19T14:46:16.818Z,2.63
2023-01-19T14:49:28.345Z,2.62
2023-01-19T14:52:37.510Z,2.68
2023-01-19T14:55:52.591Z,2.71
2023-01-19T14:59:02.294Z,2.65
2023-01-19T15:02:05.368Z,2.64
2023-01-19T15:05:09.962Z,2.60
2023-01-19T15:08:40.127Z,2.59
2023-01-19T15:11:45.193Z,2.54
2023-01-19T15:14:48.135Z,2.48
2023-01-19T15:17:50.908Z,2.45
2023-01-19T15:20:55.433Z,2.49
2023-01-19T15:24:01.313Z,2.49
2023-01-19T15:27:04.131Z,2.52
2023-01-19T15:30:21.984Z,2.40
2023-01-19T15:33:30.617Z,2.42
2023-01-19T15:36:33.337Z,2.46
2023-01-19T15:39:37.057Z,2.42
2023-01-19T15:42:39.895Z,2.43
2023-01-19T15:45:50.309Z,2.45
2023-01-19T15:48:56.503Z,2.35
2023-01-19T15:51:59.465Z,2.36
2023-01-19T15:55:02.390Z,2.28
2023-01-19T15:58:05.208Z,2.26
2023-01-19T16:01:13.058Z,2.25
2023-01-19T16:04:17.932Z,2.32
2023-01-19T16:07:21.269Z,2.28
2023-01-19T16:10:24.986Z,2.18
2023-01-19T16:13:30.119Z,2.22
2023-01-19T16:16:33.931Z,2.24
2023-01-19T16:19:36.748Z,2.19
2023-01-19T16:22:40.000Z,2.20
2023-01-19T16:25:42.783Z,2.16
2023-01-19T16:28:45.560Z,2.12
2023-01-19T16:31:48.551Z,2.19
2023-01-19T16:34:51.362Z,2.10
2023-01-19T16:38:24.967Z,2.14
2023-01-19T16:41:31.678Z,1.99
2023-01-19T16:44:34.408Z,1.90
2023-01-19T16:47:37.257Z,1.96
2023-01-19T16:50:40.200Z,1.84
2023-01-19T16:53:42.941Z,1.93
2023-01-19T16:56:46.343Z,1.92
2023-01-19T16:59:50.734Z,1.86
2023-01-19T17:03:19.540Z,1.90
2023-01-19T17:06:24.365Z,1.76
2023-01-19T17:09:31.964Z,1.80
2023-01-19T17:12:35.175Z,1.94
2023-01-19T17:15:39.215Z,1.80
2023-01-19T17:18:42.264Z,1.83
2023-01-19T17:21:46.695Z,1.88
2023-01-19T17:24:50.109Z,1.92
2023-01-19T17:28:01.360Z,1.90
2023-01-19T17:31:10.994Z,1.78
2023-01-19T17:34:14.367Z,1.73
2023-01-19T17:37:42.337Z,1.72
2023-01-19T17:40:45.319Z,1.74
2023-01-19T17:43:51.305Z,1.78
2023-01-19T17:46:54.023Z,1.65
2023-01-19T17:49:56.959Z,1.55
2023-01-19T17:52:59.799Z,1.58
2023-01-19T17:56:07.957Z,1.49
2023-01-19T17:59:11.404Z,1.52
2023-01-19T18:02:15.471Z,1.54
2023-01-19T18:05:19.192Z,1.48
2023-01-19T18:08:22.196Z,1.58
2023-01-19T18:11:26.652Z,1.43
2023-01-19T18:14:30.853Z,1.46
2023-01-19T18:17:33.648Z,1.44
2023-01-19T18:21:11.132Z,1.59
2023-01-19T18:24:14.196Z,1.60
2023-01-19T18:27:18.524Z,1.50
2023-01-19T18:30:22.562Z,1.53
2023-01-19T18:34:41.411Z,1.51
2023-01-19T18:37:44.768Z,1.69
2023-01-19T18:41:06.738Z,1.74
2023-01-19T18:44:13.305Z,1.74
2023-01-19T18:47:16.351Z,1.82
2023-01-19T18:50:19.559Z,1.87
2023-01-19T18:53:23.876Z,1.79
2023-01-19T18:56:30.777Z,1.74
2023-01-19T18:59:34.052Z,1.78
2023-01-19T19:02:37.241Z,1.78
2023-01-19T19:05:41.030Z,1.89
2023-01-19T19:08:44.253Z,1.77
2023-01-19T19:12:12.422Z,1.55
2023-01-19T19:15:15.726Z,1.58
2023-01-19T19:18:18.958Z,1.52
2023-01-19T19:21:25.413Z,1.54
2023-01-19T19:24:29.349Z,1.49
2023-01-19T19:27:32.465Z,1.48
2023-01-19T19:30:37.933Z,1.43
2023-01-19T19:34:59.263Z,1.48
2023-01-19T19:38:02.689Z,1.45
2023-01-19T19:41:11.292Z,1.32
2023-01-19T19:44:40.370Z,1.44
2023-01-19T19:47:44.023Z,1.40
2023-01-19T19:51:40.411Z,1.49
2023-01-19T19:54:45.153Z,1.47
2023-01-19T19:57:48.007Z,1.47
2023-01-19T20:00:54.459Z,1.41
2023-01-19T20:04:07.937Z,1.38
2023-01-19T20:07:15.955Z,1.33
2023-01-19T20:10:48.167Z,1.35
2023-01-19T20:13:51.706Z,1.41
2023-01-19T20:17:23.325Z,1.28
2023-01-19T20:20:27.748Z,1.29
2023-01-19T20:23:30.852Z,1.34
2023-01-19T20:26:36.392Z,1.30
2023-01-19T20:29:39.598Z,1.25
2023-01-19T20:32:42.833Z,1.22
2023-01-19T20:35:46.421Z,1.27
2023-01-19T20:38:49.353Z,1.16
2023-01-19T20:41:52.770Z,1.17
2023-01-19T20:44:57.468Z,1.18
2023-01-19T20:48:00.346Z,1.19
2023-01-19T20:51:11.363Z,1.24
2023-01-19T20:54:16.896Z,1.17
2023-01-19T20:57:19.968Z,1.17
2023-01-19T21:00:22.941Z,1.08
2023-01-19T21:03:25.972Z,1.14
2023-01-19T21:06:29.256Z,1.22
2023-01-19T21:09:32.686Z,1.08
2023-01-19T21:12:35.609Z,1.12
2023-01-19T21:15:40.932Z,1.06
2023-01-19T21:18:44.397Z,1.15
2023-01-19T21:21:47.700Z,1.15
2023-01-19T21:24:50.510Z,1.04
2023-01-19T21:27:53.396Z,1.04
2023-01-19T21:30:56.586Z,0.93
2023-01-19T21:33:59.577Z,1.02
2023-01-19T21:37:02.464Z,0.95
2023-01-19T21:40:06.347Z,0.98
2023-01-19T21:43:09.122Z,0.97
2023-01-19T21:47:31.058Z,0.88
2023-01-19T21:50:34.526Z,0.84
2023-01-19T21:53:37.917Z,0.87
2023-01-19T21:56:43.274Z,0.93
2023-01-19T21:59:46.251Z,1.01
2023-01-19T22:03:02.745Z,0.88
2023-01-19T22:06:08.716Z,0.88
2023-01-19T22:09:11.589Z,0.76
2023-01-19T22:12:16.340Z,1.06
2023-01-19T22:16:10.965Z,1.23
2023-01-19T22:19:14.559Z,0.95
2023-01-19T22:22:17.366Z,0.77
2023-01-19T22:25:26.297Z,0.72
2023-01-19T22:28:29.241Z,0.66
2023-01-19T22:31:32.555Z,0.63
2023-01-19T22:34:35.604Z,0.73
2023-01-19T22:37:38.433Z,0.59
2023-01-19T22:45:55.906Z,0.60
2023-01-19T22:49:03.074Z,0.62
2023-01-19T22:52:06.099Z,0.51
2023-01-19T22:55:09.402Z,0.49
2023-01-19T22:58:37.276Z,0.44
2023-01-19T23:06:29.719Z,0.27
2023-01-19T23:09:59.081Z,0.29
2023-01-19T23:13:01.991Z,0.37
2023-01-19T23:16:05.761Z,0.27
2023-01-19T23:20:05.162Z,0.23
2023-01-19T23:23:08.060Z,0.30
2023-01-19T23:26:17.351Z,0.42
2023-01-19T23:29:24.276Z,0.49
2023-01-19T23:32:27.048Z,0.52
2023-01-19T23:35:29.872Z,0.51
2023-01-19T23:39:06.282Z,0.60
2023-01-19T23:42:09.321Z,0.55
2023-01-19T23:45:12.882Z,0.62
2023-01-19T23:48:16.027Z,0.66
2023-01-19T23:51:28.119Z,0.70
2023-01-19T23:54:31.039Z,0.65
2023-01-19T23:57:34.007Z,0.69
